Time;durP1;ratioP1;P1;durP2;ratioP2;P2;SDS_P1;SDS_P2;PMS_P1;PMS_P2;Temp;Humidity;BMP_temperature;BMP_pressure;BME280_temperature;BME280_humidity;BME280_pressure;Samples;Min_cycle;Max_cycle;Signal;HPM_P1;HPM_P2
2021/07/16 00:01:58;;;;;;;9.30;6.25;;;;;;;;;;5056547;28;20531;-77
2021/07/16 00:04:24;;;;;;;9.77;6.40;;;;;;;;;;5056506;28;20025;-76
2021/07/16 00:06:50;;;;;;;8.23;5.68;;;;;;;;;;5056441;28;20115;-78
2021/07/16 00:09:16;;;;;;;7.65;5.47;;;;;;;;;;5056339;28;20045;-75
2021/07/16 00:11:42;;;;;;;10.65;6.35;;;;;;;;;;5056377;28;20175;-75
2021/07/16 00:14:09;;;;;;;8.00;5.72;;;;;;;;;;5056280;28;20029;-77
2021/07/16 00:16:35;;;;;;;11.23;7.15;;;;;;;;;;5056313;28;20044;-74
2021/07/16 00:19:01;;;;;;;8.52;6.35;;;;;;;;;;5056244;28;20101;-77
2021/07/16 00:21:27;;;;;;;9.55;6.55;;;;;;;;;;5056197;28;20507;-77
2021/07/16 00:23:53;;;;;;;8.70;6.28;;;;;;;;;;5056150;28;20020;-75
2021/07/16 00:26:19;;;;;;;11.10;7.40;;;;;;;;;;5056094;28;20132;-74
2021/07/16 00:28:45;;;;;;;9.05;6.47;;;;;;;;;;5056060;28;20029;-75
2021/07/16 00:31:12;;;;;;;9.35;5.97;;;;;;;;;;5056022;28;20052;-78
2021/07/16 00:33:38;;;;;;;9.75;6.50;;;;;;;;;;5056494;28;20025;-77
2021/07/16 00:36:04;;;;;;;8.50;6.20;;;;;;;;;;5055842;28;20037;-76
2021/07/16 00:38:30;;;;;;;11.10;6.93;;;;;;;;;;5056401;28;20139;-76
2021/07/16 00:40:56;;;;;;;10.35;6.97;;;;;;;;;;5055822;28;20017;-78
2021/07/16 00:43:23;;;;;;;8.70;6.55;;;;;;;;;;5055379;28;20020;-76
2021/07/16 00:45:49;;;;;;;11.63;7.10;;;;;;;;;;5055750;28;20033;-76
2021/07/16 00:48:15;;;;;;;10.40;7.78;;;;;;;;;;5055967;28;20082;-75
2021/07/16 00:50:41;;;;;;;10.40;6.97;;;;;;;;;;5055679;28;20496;-75
2021/07/16 00:53:15;;;;;;;10.48;7.22;;;;;;;;;;5055867;28;20100;-74
2021/07/16 00:55:41;;;;;;;10.77;6.95;;;;;;;;;;5056123;28;20025;-76
2021/07/16 00:58:08;;;;;;;8.90;6.65;;;;;;;;;;5055543;28;20143;-74
2021/07/16 01:00:34;;;;;;;10.32;7.78;;;;;;;;;;5055470;28;20027;-76
2021/07/16 01:03:00;;;;;;;11.82;7.55;;;;;;;;;;5055455;28;20531;-76
2021/07/16 01:05:26;;;;;;;12.27;7.25;;;;;;;;;;5055402;28;20393;-74
2021/07/16 01:07:53;;;;;;;12.13;7.95;;;;;;;;;;5055134;28;20021;-76
2021/07/16 01:10:20;;;;;;;10.50;7.68;;;;;;;;;;5037199;28;20039;-76
2021/07/16 01:12:51;;;;;;;11.88;8.13;;;;;;;;;;5055528;28;20037;-76
2021/07/16 01:15:18;;;;;;;11.05;7.90;;;;;;;;;;5055197;28;20111;-77
2021/07/16 01:17:44;;;;;;;13.93;8.52;;;;;;;;;;5055440;28;20508;-76
2021/07/16 01:20:10;;;;;;;12.68;7.80;;;;;;;;;;5055103;28;20029;-75
2021/07/16 01:22:38;;;;;;;10.95;8.02;;;;;;;;;;5055077;28;20032;-76
2021/07/16 01:25:06;;;;;;;13.07;8.23;;;;;;;;;;5054986;28;20053;-75
2021/07/16 01:27:32;;;;;;;12.30;7.82;;;;;;;;;;5037088;28;20400;-76
2021/07/16 01:29:59;;;;;;;13.05;8.00;;;;;;;;;;5055202;28;20074;-76
2021/07/16 01:32:26;;;;;;;11.18;7.95;;;;;;;;;;5055177;28;20107;-75
2021/07/16 01:34:53;;;;;;;11.52;7.70;;;;;;;;;;5055027;28;20382;-75
2021/07/16 01:37:19;;;;;;;11.93;7.63;;;;;;;;;;5055064;28;20025;-76
2021/07/16 01:39:45;;;;;;;14.55;9.15;;;;;;;;;;5055061;28;20022;-75
2021/07/16 01:42:11;;;;;;;11.32;7.80;;;;;;;;;;5054645;28;20493;-76
2021/07/16 01:44:38;;;;;;;12.00;8.05;;;;;;;;;;5054667;28;20025;-76
2021/07/16 01:47:05;;;;;;;11.48;8.20;;;;;;;;;;5054599;28;20029;-75
2021/07/16 01:49:31;;;;;;;14.45;8.57;;;;;;;;;;5054511;28;20025;-77
2021/07/16 01:51:57;;;;;;;11.40;7.78;;;;;;;;;;5054788;28;20427;-75
2021/07/16 01:54:24;;;;;;;11.60;7.45;;;;;;;;;;5054083;28;20033;-75
2021/07/16 01:56:50;;;;;;;12.05;7.80;;;;;;;;;;5054142;28;20180;-78
2021/07/16 01:59:16;;;;;;;11.40;8.98;;;;;;;;;;5054365;28;20492;-77
2021/07/16 02:01:42;;;;;;;14.75;8.70;;;;;;;;;;5054267;28;20021;-76
2021/07/16 02:04:10;;;;;;;11.35;8.73;;;;;;;;;;5054291;28;20017;-76
2021/07/16 02:06:36;;;;;;;13.13;9.05;;;;;;;;;;5054232;28;20029;-77
2021/07/16 02:09:04;;;;;;;14.57;9.32;;;;;;;;;;5053460;28;20055;-77
2021/07/16 02:11:30;;;;;;;13.43;8.88;;;;;;;;;;5053801;28;20029;-75
2021/07/16 02:13:57;;;;;;;12.60;8.80;;;;;;;;;;5053191;28;20029;-79
2021/07/16 02:16:23;;;;;;;12.90;8.93;;;;;;;;;;5053077;28;20039;-77
2021/07/16 02:18:52;;;;;;;13.30;8.88;;;;;;;;;;5053196;28;20095;-76
2021/07/16 02:21:18;;;;;;;16.58;10.15;;;;;;;;;;5053127;28;20072;-76
2021/07/16 02:23:44;;;;;;;12.38;9.60;;;;;;;;;;5053345;28;20025;-77
2021/07/16 02:26:10;;;;;;;15.40;10.63;;;;;;;;;;5053295;28;20028;-77
2021/07/16 02:28:37;;;;;;;13.13;10.32;;;;;;;;;;5052974;28;20024;-76
2021/07/16 02:31:03;;;;;;;13.93;10.32;;;;;;;;;;5052939;28;20037;-75
2021/07/16 02:33:29;;;;;;;14.23;9.32;;;;;;;;;;5052933;28;20032;-76
2021/07/16 02:35:56;;;;;;;14.43;9.88;;;;;;;;;;5053088;28;20032;-75
2021/07/16 02:38:22;;;;;;;13.18;9.88;;;;;;;;;;5053104;28;20067;-76
2021/07/16 02:40:48;;;;;;;15.35;11.25;;;;;;;;;;5052853;28;20096;-76
2021/07/16 02:43:15;;;;;;;15.57;10.48;;;;;;;;;;5053014;28;20556;-76
2021/07/16 02:45:41;;;;;;;17.40;11.65;;;;;;;;;;5052777;28;20044;-74
2021/07/16 02:48:07;;;;;;;14.85;11.13;;;;;;;;;;5053004;28;20025;-77
2021/07/16 02:50:35;;;;;;;14.05;9.75;;;;;;;;;;5052702;28;20040;-75
2021/07/16 02:53:01;;;;;;;15.77;10.32;;;;;;;;;;5053231;28;20385;-77
2021/07/16 02:55:27;;;;;;;14.48;10.38;;;;;;;;;;5052482;28;20029;-75
2021/07/16 02:57:53;;;;;;;14.65;10.15;;;;;;;;;;5052621;28;20017;-76
2021/07/16 03:00:23;;;;;;;15.63;9.85;;;;;;;;;;5052582;28;20100;-78
2021/07/16 03:02:50;;;;;;;14.38;10.63;;;;;;;;;;5052582;28;20388;-77
2021/07/16 03:05:20;;;;;;;16.08;10.50;;;;;;;;;;5052752;28;20099;-75
2021/07/16 03:07:47;;;;;;;14.80;9.38;;;;;;;;;;5008146;28;1270224;-77
2021/07/16 03:10:18;;;;;;;14.32;9.10;;;;;;;;;;5053496;28;20055;-75
2021/07/16 03:12:44;;;;;;;13.80;9.38;;;;;;;;;;5053722;28;20029;-77
2021/07/16 03:15:17;;;;;;;14.18;10.45;;;;;;;;;;5053086;28;20032;-77
2021/07/16 03:17:44;;;;;;;15.32;10.15;;;;;;;;;;5053106;28;20021;-76
2021/07/16 03:20:14;;;;;;;18.05;12.55;;;;;;;;;;5053115;28;20060;-76
2021/07/16 03:22:41;;;;;;;18.33;12.15;;;;;;;;;;5053331;28;20111;-76
2021/07/16 03:25:08;;;;;;;17.42;12.05;;;;;;;;;;5053018;28;20481;-75
2021/07/16 03:27:35;;;;;;;17.95;11.68;;;;;;;;;;5052994;28;20037;-77
2021/07/16 03:30:01;;;;;;;15.13;10.55;;;;;;;;;;5052997;28;20493;-77
2021/07/16 03:32:27;;;;;;;20.08;12.63;;;;;;;;;;5052961;28;20473;-75
2021/07/16 03:34:53;;;;;;;17.95;12.70;;;;;;;;;;5052885;28;20032;-75
2021/07/16 03:37:19;;;;;;;16.17;11.50;;;;;;;;;;5052984;28;20032;-77
2021/07/16 03:39:45;;;;;;;17.52;11.98;;;;;;;;;;5053178;28;20025;-77
2021/07/16 03:42:11;;;;;;;19.48;11.85;;;;;;;;;;5052913;28;20109;-75
2021/07/16 03:44:37;;;;;;;15.23;11.45;;;;;;;;;;5052878;28;20025;-77
2021/07/16 03:47:03;;;;;;;14.90;10.60;;;;;;;;;;5052819;28;20025;-77
2021/07/16 03:49:29;;;;;;;14.77;10.57;;;;;;;;;;5052795;28;20547;-76
2021/07/16 03:51:56;;;;;;;15.98;10.23;;;;;;;;;;5052786;28;20025;-78
2021/07/16 03:54:25;;;;;;;17.50;9.73;;;;;;;;;;5052773;28;20477;-77
2021/07/16 03:56:51;;;;;;;15.05;10.45;;;;;;;;;;5052986;28;20024;-77
2021/07/16 03:59:17;;;;;;;15.68;10.18;;;;;;;;;;5052959;28;20021;-75
2021/07/16 04:01:47;;;;;;;14.07;10.23;;;;;;;;;;5052693;28;20028;-76
2021/07/16 04:04:13;;;;;;;15.35;9.70;;;;;;;;;;5034832;28;20366;-77
2021/07/16 04:06:39;;;;;;;18.10;10.55;;;;;;;;;;5052622;28;20063;-75
2021/07/16 04:09:26;;;;;;;15.68;11.15;;;;;;;;;;5052602;28;20071;-77
2021/07/16 04:12:04;;;;;;;15.55;9.57;;;;;;;;;;5053266;28;20496;-76
2021/07/16 04:14:30;;;;;;;13.93;9.82;;;;;;;;;;5052852;28;20021;-77
2021/07/16 04:16:56;;;;;;;13.68;9.65;;;;;;;;;;5052557;28;20435;-77
2021/07/16 04:19:21;;;;;;;15.77;10.15;;;;;;;;;;5054786;28;20021;-75
2021/07/16 04:21:48;;;;;;;16.58;12.02;;;;;;;;;;5056220;28;20025;-77
2021/07/16 04:24:14;;;;;;;16.67;11.80;;;;;;;;;;5056195;28;20070;-76
2021/07/16 04:26:39;;;;;;;15.40;10.45;;;;;;;;;;5056130;28;20028;-76
2021/07/16 04:29:06;;;;;;;14.75;9.95;;;;;;;;;;5056094;28;20025;-78
2021/07/16 04:31:32;;;;;;;15.40;10.43;;;;;;;;;;5056065;28;20029;-75
2021/07/16 04:33:58;;;;;;;13.98;9.85;;;;;;;;;;5056003;28;20095;-76
2021/07/16 04:36:24;;;;;;;14.85;10.40;;;;;;;;;;5037956;28;20404;-76
2021/07/16 04:38:50;;;;;;;15.20;10.48;;;;;;;;;;5055951;28;20025;-77
2021/07/16 04:41:16;;;;;;;16.80;11.32;;;;;;;;;;5055924;28;20028;-77
2021/07/16 04:43:42;;;;;;;14.43;9.80;;;;;;;;;;5056108;28;20017;-77
2021/07/16 04:46:08;;;;;;;14.93;10.68;;;;;;;;;;5055755;28;20029;-76
2021/07/16 04:48:34;;;;;;;15.15;10.13;;;;;;;;;;5055748;28;20099;-76
2021/07/16 04:51:00;;;;;;;13.25;9.27;;;;;;;;;;5055724;28;20029;-78
2021/07/16 04:53:26;;;;;;;13.82;9.70;;;;;;;;;;5055826;28;20032;-76
2021/07/16 04:55:52;;;;;;;18.13;12.80;;;;;;;;;;5055522;28;20393;-76
2021/07/16 04:58:18;;;;;;;17.63;12.52;;;;;;;;;;5055822;28;20018;-75
2021/07/16 05:00:44;;;;;;;17.23;12.13;;;;;;;;;;5055487;28;20025;-75
2021/07/16 05:03:10;;;;;;;19.95;12.90;;;;;;;;;;5055436;28;20082;-77
2021/07/16 05:05:36;;;;;;;19.05;13.20;;;;;;;;;;5055440;28;20113;-76
2021/07/16 05:08:02;;;;;;;17.60;12.25;;;;;;;;;;5055166;28;20059;-77
2021/07/16 05:10:28;;;;;;;19.90;12.85;;;;;;;;;;5055886;28;20025;-75
2021/07/16 05:12:54;;;;;;;18.67;11.93;;;;;;;;;;5055500;28;20031;-75
2021/07/16 05:15:20;;;;;;;18.35;11.73;;;;;;;;;;5055125;28;20108;-76
2021/07/16 05:17:46;;;;;;;17.58;10.95;;;;;;;;;;5055482;28;20025;-77
2021/07/16 05:20:12;;;;;;;18.33;10.93;;;;;;;;;;5055418;28;20021;-76
2021/07/16 05:22:38;;;;;;;15.95;11.43;;;;;;;;;;5055366;28;20032;-78
2021/07/16 05:25:05;;;;;;;16.35;10.93;;;;;;;;;;5055313;28;20067;-76
2021/07/16 05:27:31;;;;;;;15.32;10.23;;;;;;;;;;5054988;28;20029;-75
2021/07/16 05:29:57;;;;;;;15.68;10.82;;;;;;;;;;5053794;28;20025;-76
2021/07/16 05:32:23;;;;;;;17.85;11.68;;;;;;;;;;5054935;28;20567;-75
2021/07/16 05:34:49;;;;;;;15.25;11.10;;;;;;;;;;5054795;28;20033;-76
2021/07/16 05:37:15;;;;;;;17.08;11.90;;;;;;;;;;5054813;28;20029;-75
2021/07/16 05:39:41;;;;;;;18.00;12.05;;;;;;;;;;5054779;28;20377;-76
2021/07/16 05:42:07;;;;;;;19.33;13.30;;;;;;;;;;5054749;28;20029;-76
2021/07/16 05:44:33;;;;;;;20.25;14.15;;;;;;;;;;5054994;28;20025;-77
2021/07/16 05:47:00;;;;;;;18.83;12.65;;;;;;;;;;5055173;28;20029;-76
2021/07/16 05:49:26;;;;;;;22.00;14.65;;;;;;;;;;5054615;28;20100;-75
2021/07/16 05:51:52;;;;;;;18.80;13.45;;;;;;;;;;5054604;28;20104;-78
2021/07/16 05:54:18;;;;;;;19.85;13.70;;;;;;;;;;5054523;28;20127;-77
2021/07/16 05:56:45;;;;;;;20.00;14.13;;;;;;;;;;5054441;28;20055;-75
2021/07/16 05:59:11;;;;;;;18.90;13.48;;;;;;;;;;5054996;28;20025;-78
2021/07/16 06:01:37;;;;;;;17.35;12.90;;;;;;;;;;5054642;28;20442;-78
2021/07/16 06:04:09;;;;;;;18.60;13.18;;;;;;;;;;5054325;28;20048;-75
2021/07/16 06:06:36;;;;;;;17.95;13.40;;;;;;;;;;5054382;28;20108;-76
2021/07/16 06:09:02;;;;;;;17.08;12.15;;;;;;;;;;5054163;28;20052;-81
2021/07/16 06:11:28;;;;;;;18.67;13.05;;;;;;;;;;5054768;28;20033;-77
2021/07/16 06:13:54;;;;;;;19.15;14.25;;;;;;;;;;5054408;28;20025;-78
2021/07/16 06:16:20;;;;;;;16.45;12.13;;;;;;;;;;5053982;28;20493;-78
2021/07/16 06:18:46;;;;;;;17.98;12.73;;;;;;;;;;5054009;28;20128;-77
2021/07/16 06:21:12;;;;;;;15.85;11.77;;;;;;;;;;5054251;28;20017;-77
2021/07/16 06:23:39;;;;;;;16.83;11.82;;;;;;;;;;5053928;28;20013;-78
2021/07/16 06:26:05;;;;;;;17.48;12.23;;;;;;;;;;5054437;28;20025;-78
2021/07/16 06:28:31;;;;;;;19.33;13.77;;;;;;;;;;5053821;28;20033;-78
2021/07/16 06:30:57;;;;;;;16.85;13.13;;;;;;;;;;5053834;28;20032;-78
2021/07/16 06:33:23;;;;;;;17.75;13.13;;;;;;;;;;5054074;28;20035;-78
2021/07/16 06:35:49;;;;;;;18.65;13.65;;;;;;;;;;5053650;28;20103;-77
2021/07/16 06:38:15;;;;;;;19.90;14.80;;;;;;;;;;5053676;28;20055;-78
2021/07/16 06:40:41;;;;;;;23.30;15.48;;;;;;;;;;5053518;28;20029;-78
2021/07/16 06:43:10;;;;;;;20.90;15.30;;;;;;;;;;5053421;28;20096;-78
2021/07/16 06:45:36;;;;;;;17.95;14.40;;;;;;;;;;5053560;28;20052;-77
2021/07/16 06:48:03;;;;;;;19.92;14.43;;;;;;;;;;5053774;28;20567;-77
2021/07/16 06:50:29;;;;;;;22.33;15.55;;;;;;;;;;5053771;28;20032;-77
2021/07/16 06:52:55;;;;;;;23.50;16.13;;;;;;;;;;5053695;28;20362;-78
2021/07/16 06:55:21;;;;;;;23.50;15.27;;;;;;;;;;5053261;28;20050;-78
2021/07/16 06:57:47;;;;;;;22.52;15.50;;;;;;;;;;5053406;28;20027;-78
2021/07/16 07:00:14;;;;;;;21.80;15.73;;;;;;;;;;5053623;28;20025;-78
2021/07/16 07:02:40;;;;;;;21.90;15.05;;;;;;;;;;5053307;28;20021;-78
2021/07/16 07:05:06;;;;;;;22.35;14.82;;;;;;;;;;5053564;28;20037;-78
2021/07/16 07:07:32;;;;;;;18.63;13.68;;;;;;;;;;5053815;28;20025;-78
2021/07/16 07:09:58;;;;;;;21.83;12.98;;;;;;;;;;5052840;28;20057;-78
2021/07/16 07:12:24;;;;;;;19.55;12.70;;;;;;;;;;5053446;28;20377;-77
2021/07/16 07:14:52;;;;;;;17.95;11.93;;;;;;;;;;5053100;28;20033;-78
2021/07/16 07:17:18;;;;;;;17.60;10.80;;;22.20;73.00;;;;;;5053438;28;20025;-78
2021/07/16 07:19:44;;;;;;;15.55;10.10;;;21.50;86.90;;;;;;5053134;28;20112;-78
2021/07/16 07:22:10;;;;;;;12.45;8.73;;;21.60;85.00;;;;;;5053111;28;20442;-78
2021/07/16 07:24:35;;;;;;;12.43;8.40;;;21.90;83.60;;;;;;5053393;28;20385;-78
2021/07/16 07:27:02;;;;;;;13.70;7.82;;;22.20;81.40;;;;;;5053282;28;20025;-78
2021/07/16 07:29:30;;;;;;;13.25;7.20;;;22.30;80.00;;;;;;5053030;28;20021;-78
2021/07/16 07:31:56;;;;;;;11.20;6.40;;;22.50;78.70;;;;;;5053034;28;20516;-77
2021/07/16 07:34:21;;;;;;;8.50;5.97;;;22.70;77.70;;;;;;5052897;28;20029;-78
2021/07/16 07:36:48;;;;;;;11.45;5.90;;;22.80;76.90;;;;;;5053209;28;20097;-77
2021/07/16 07:39:14;;;;;;;10.65;5.93;;;23.10;73.90;;;;;;5053180;28;20474;-78
2021/07/16 07:41:45;;;;;;;9.20;4.97;;;23.00;73.30;;;;;;5052910;28;20063;-78
2021/07/16 07:44:14;;;;;;;9.85;5.20;;;23.30;73.20;;;;;;5053192;28;20021;-77
2021/07/16 07:46:40;;;;;;;8.05;5.00;;;23.50;70.50;;;;;;5052889;28;20493;-78
2021/07/16 07:49:07;;;;;;;8.90;5.88;;;23.80;70.30;;;;;;5052844;28;20033;-78
2021/07/16 07:51:34;;;;;;;6.78;4.70;;;23.80;69.90;;;;;;5052833;28;20017;-77
2021/07/16 07:54:00;;;;;;;7.95;4.35;;;23.80;68.50;;;;;;5054559;28;20082;-78
2021/07/16 07:56:26;;;;;;;7.45;3.83;;;24.00;66.30;;;;;;5056940;28;20104;-78
2021/07/16 07:58:52;;;;;;;6.88;3.30;;;24.00;63.90;;;;;;5056686;28;20017;-78
2021/07/16 08:01:19;;;;;;;6.80;3.22;;;24.40;60.00;;;;;;5056634;28;20017;-78
2021/07/16 08:03:45;;;;;;;6.32;3.00;;;24.40;56.90;;;;;;5056602;28;20104;-78
2021/07/16 08:06:11;;;;;;;6.35;3.35;;;;;;;;;;5056523;28;20577;-78
2021/07/16 08:08:37;;;;;;;5.75;3.38;;;;;;;;;;5056507;28;20417;-78
2021/07/16 08:11:03;;;;;;;9.27;3.08;;;;;;;;;;5056411;28;20028;-78
2021/07/16 08:13:29;;;;;;;7.38;3.55;;;;;;;;;;5056421;28;20032;-78
2021/07/16 08:15:55;;;;;;;6.47;3.13;;;;;;;;;;5056544;28;20029;-78
2021/07/16 08:18:21;;;;;;;5.05;3.45;;;;;;;;;;5056273;28;20401;-78
2021/07/16 08:20:47;;;;;;;6.30;3.35;;;;;;;;;;5056550;28;20457;-77
2021/07/16 08:23:13;;;;;;;6.68;3.25;;;;;;;;;;5056542;28;20049;-78
2021/07/16 08:25:40;;;;;;;8.05;3.40;;;;;;;;;;5056517;28;20024;-78
2021/07/16 08:28:06;;;;;;;5.13;3.05;;;;;;;;;;5056126;28;20083;-79
2021/07/16 08:30:32;;;;;;;8.05;3.38;;;;;;;;;;5056663;28;20017;-78
2021/07/16 08:32:58;;;;;;;9.00;3.25;;;;;;;;;;5056367;28;20435;-77
2021/07/16 08:35:24;;;;;;;8.40;3.55;;;;;;;;;;5055947;28;20025;-77
2021/07/16 08:37:50;;;;;;;6.40;3.13;;;;;;;;;;5056286;28;20021;-77
2021/07/16 08:40:16;;;;;;;8.07;3.58;;;;;;;;;;5055902;28;20074;-78
2021/07/16 08:42:46;;;;;;;6.57;3.38;;;;;;;;;;5056413;28;20025;-76
2021/07/16 08:45:12;;;;;;;;;;;;;;;;;;5056560;28;20025;-77
2021/07/16 08:47:39;;;;;;;6.13;3.25;;;;;;;;;;5055814;28;19912;-80
2021/07/16 08:50:06;;;;;;;7.68;3.50;;;;;;;;;;5056001;28;20033;-78
2021/07/16 08:52:32;;;;;;;6.40;3.67;;;;;;;;;;5055974;28;20029;-79
2021/07/16 08:55:00;;;;;;;6.10;3.33;;;;;;;;;;5055767;28;20461;-79
2021/07/16 08:57:28;;;;;;;4.68;3.15;;;;;;;;;;5055626;28;20044;-80
2021/07/16 08:59:54;;;;;;;7.53;3.13;;;;;;;;;;5055565;28;20052;-80
2021/07/16 09:02:25;;;;;;;7.18;3.45;;;;;;;;;;5055491;28;20040;-83
2021/07/16 09:04:57;;;;;;;5.57;3.22;;;24.60;55.90;;;;;;5055807;28;20389;-82
2021/07/16 09:07:23;;;;;;;6.47;3.30;;;;;;;;;;5055600;28;20064;-81
2021/07/16 09:09:49;;;;;;;9.93;3.40;;;28.30;46.70;;;;;;5054940;28;20055;-77
2021/07/16 09:12:15;;;;;;;8.68;3.50;;;28.60;44.70;;;;;;5055376;28;20100;-77
2021/07/16 09:14:41;;;;;;;8.27;3.40;;;;;;;;;;5055490;28;20029;-76
2021/07/16 09:17:09;;;;;;;5.95;3.30;;;;;;;;;;5055770;28;20100;-77
2021/07/16 09:19:35;;;;;;;6.18;3.20;;;;;;;;;;5055517;28;20021;-78
2021/07/16 09:22:08;;;;;;;6.03;3.33;;;;;;;;;;5055149;28;20025;-77
2021/07/16 09:24:35;;;;;;;6.95;3.13;;;;;;;;;;5055227;28;20031;-78
2021/07/16 09:27:02;;;;;;;8.18;3.60;;;;;;;;;;5055037;28;20370;-77
2021/07/16 09:29:32;;;;;;;6.53;2.80;;;;;;;;;;5055025;28;20108;-77
2021/07/16 09:32:06;;;;;;;6.82;3.08;;;28.70;44.50;;;;;;5054975;28;20389;-79
2021/07/16 09:34:31;;;;;;;7.50;2.80;;;31.70;39.70;;;;;;5055409;28;20074;-77
2021/07/16 09:37:07;;;;;;;4.60;2.85;;;32.40;38.20;;;;;;5054876;28;20025;-80
2021/07/16 09:39:35;;;;;;;6.47;3.00;;;32.90;37.80;;;;;;5055130;28;20021;-78
2021/07/16 09:42:03;;;;;;;8.02;2.95;;;32.80;36.90;;;;;;5054840;28;20056;-78
2021/07/16 09:44:38;;;;;;;5.57;3.00;;;32.80;36.40;;;;;;5054726;28;20029;-79
2021/07/16 09:47:09;;;;;;;6.15;2.85;;;32.50;36.40;;;;;;5055256;28;20147;-79
2021/07/16 09:49:36;;;;;;;6.07;3.08;;;32.60;36.80;;;;;;5054640;28;20036;-82
2021/07/16 09:52:21;;;;;;;6.15;2.90;;;33.20;36.00;;;;;;5054571;28;20032;-81
2021/07/16 09:55:05;;;;;;;6.15;3.15;;;33.80;35.30;;;;;;5054406;28;20474;-79
2021/07/16 09:57:44;;;;;;;7.10;3.22;;;34.10;33.60;;;;;;5055039;28;20029;-78
2021/07/16 10:00:14;;;;;;;6.38;2.58;;;35.00;34.20;;;;;;5054703;28;20032;-80
2021/07/16 10:02:45;;;;;;;4.50;2.35;;;35.50;33.00;;;;;;5054972;28;20458;-78
2021/07/16 10:05:11;;;;;;;6.35;2.60;;;35.90;33.00;;;;;;5054373;28;20031;-80
2021/07/16 10:07:37;;;;;;;5.10;2.53;;;35.90;32.50;;;;;;5054575;28;20029;-79
2021/07/16 10:10:04;;;;;;;4.20;2.40;;;35.90;30.60;;;;;;5053825;28;20045;-79
2021/07/16 10:12:30;;;;;;;7.85;2.95;;;36.10;30.90;;;;;;5054236;28;20393;-80
2021/07/16 10:14:56;;;;;;;4.63;2.42;;;36.50;31.30;;;;;;5054090;28;20029;-81
2021/07/16 10:17:22;;;;;;;5.68;2.45;;;37.60;30.20;;;;;;5053498;28;20436;-78
2021/07/16 10:19:50;;;;;;;5.43;2.40;;;38.20;29.60;;;;;;5054630;28;20017;-79
2021/07/16 10:22:17;;;;;;;5.25;2.42;;;38.30;28.60;;;;;;5054036;28;20473;-79
2021/07/16 10:24:44;;;;;;;4.88;2.40;;;38.90;28.70;;;;;;5053998;28;20028;-82
2021/07/16 10:27:10;;;;;;;6.43;2.55;;;38.70;29.10;;;;;;5053937;28;20029;-78
2021/07/16 10:29:43;;;;;;;6.75;2.65;;;38.60;29.50;;;;;;5053873;28;20025;-78
2021/07/16 10:32:09;;;;;;;4.68;2.63;;;39.20;28.90;;;;;;5054349;28;20420;-80
2021/07/16 10:34:39;;;;;;;5.07;2.70;;;39.60;28.50;;;;;;5053965;28;20485;-80
2021/07/16 10:37:11;;;;;;;3.92;2.50;;;39.30;28.60;;;;;;5053746;28;20043;-81
2021/07/16 10:39:44;;;;;;;5.97;2.75;;;39.70;27.60;;;;;;5054326;28;20480;-79
2021/07/16 10:42:29;;;;;;;4.43;3.53;;;39.90;27.70;;;;;;5053688;28;20021;-79
2021/07/16 10:44:59;;;;;;;3.63;2.35;;;40.60;27.10;;;;;;5053633;28;20507;-79
2021/07/16 10:47:47;;;;;;;5.20;2.55;;;42.10;27.20;;;;;;5053832;28;20385;-78
2021/07/16 10:50:37;;;;;;;5.97;2.83;;;41.50;26.10;;;;;;5053488;28;20493;-80
2021/07/16 10:53:03;;;;;;;4.60;2.60;;;40.90;26.70;;;;;;5048521;28;20032;-80
2021/07/16 10:55:29;;;;;;;6.13;2.38;;;41.60;26.90;;;;;;5053851;28;20473;-78
2021/07/16 10:57:55;;;;;;;5.28;2.50;;;42.60;26.70;;;;;;5053456;28;20067;-78
2021/07/16 11:00:40;;;;;;;5.80;2.40;;;43.20;26.60;;;;;;5053653;28;20036;-80
2021/07/16 11:03:13;;;;;;;5.07;2.55;;;43.00;26.50;;;;;;5053245;28;20025;-80
2021/07/16 11:05:39;;;;;;;5.10;2.40;;;43.70;26.10;;;;;;5053876;28;20029;-78
2021/07/16 11:08:06;;;;;;;3.90;2.30;;;43.80;27.20;;;;;;5053109;28;20045;-80
2021/07/16 11:10:46;;;;;;;3.27;2.23;;;43.70;26.60;;;;;;5053552;28;20051;-78
2021/07/16 11:13:34;;;;;;;5.57;2.42;;;42.40;27.00;;;;;;5053432;28;20259;-78
2021/07/16 11:16:34;;;;;;;5.70;2.53;;;41.50;27.90;;;;;;5053084;28;20078;-77
2021/07/16 11:19:09;;;;;;;4.93;2.75;;;40.50;28.30;;;;;;5050077;28;20044;-79
2021/07/16 11:24:31;;;;;;;4.25;2.60;;;33.00;35.10;;;;;;5053370;28;20052;-79
2021/07/16 11:27:18;;;;;;;5.35;3.10;;;30.40;40.00;;;;;;5053506;28;20025;-81
2021/07/16 11:29:48;;;;;;;6.88;3.10;;;29.00;41.90;;;;;;5057579;28;20029;-80
2021/07/16 11:32:28;;;;;;;6.25;3.40;;;27.80;43.40;;;;;;5057235;28;20021;-81
2021/07/16 11:34:59;;;;;;;6.43;3.30;;;26.90;44.50;;;;;;5057123;28;20035;-80
2021/07/16 11:37:29;;;;;;;6.80;3.35;;;26.40;46.00;;;;;;5057173;28;20025;-80
2021/07/16 11:40:02;;;;;;;6.72;3.53;;;26.00;48.40;;;;;;5057352;28;20036;-80
2021/07/16 11:42:29;;;;;;;6.28;2.90;;;25.80;47.30;;;;;;5057872;28;20024;-80
2021/07/16 11:44:55;;;;;;;7.57;3.40;;;25.50;48.00;;;;;;5057465;28;20025;-79
2021/07/16 11:47:25;;;;;;;5.47;3.53;;;25.40;49.70;;;;;;5039014;28;20025;-80
2021/07/16 11:49:58;;;;;;;5.97;3.28;;;25.10;49.80;;;;;;5056908;28;20071;-80
2021/07/16 11:52:32;;;;;;;7.68;3.78;;;25.00;49.00;;;;;;5057154;28;20029;-79
2021/07/16 11:55:11;;;;;;;6.13;3.30;;;25.00;49.50;;;;;;5056752;28;20017;-78
2021/07/16 11:57:57;;;;;;;5.03;3.33;;;24.80;48.70;;;;;;5056784;28;20489;-78
2021/07/16 12:00:29;;;;;;;6.93;3.50;;;24.80;49.00;;;;;;5056981;28;20021;-80
2021/07/16 12:03:05;;;;;;;7.72;3.53;;;24.60;48.10;;;;;;5057266;28;20025;-78
2021/07/16 12:05:32;;;;;;;6.43;3.63;;;24.50;48.80;;;;;;5057172;28;20036;-78
2021/07/16 12:07:58;;;;;;;6.72;3.60;;;24.50;48.90;;;;;;5056432;28;20066;-78
2021/07/16 12:10:24;;;;;;;6.30;3.30;;;24.40;48.50;;;;;;5056882;28;20021;-79
2021/07/16 12:12:50;;;;;;;5.22;3.50;;;24.40;49.00;;;;;;5056511;28;20100;-80
2021/07/16 12:15:22;;;;;;;4.97;3.58;;;24.40;47.80;;;;;;5056598;28;20028;-78
2021/07/16 12:17:52;;;;;;;4.90;3.28;;;24.30;49.10;;;;;;5056418;28;20025;-79
2021/07/16 12:20:20;;;;;;;6.45;3.50;;;24.30;48.40;;;;;;5056648;28;20415;-80
2021/07/16 12:22:47;;;;;;;6.10;3.65;;;24.20;49.10;;;;;;5056548;28;20496;-81
2021/07/16 12:25:15;;;;;;;5.63;3.40;;;24.10;49.00;;;;;;5056220;28;20104;-78
2021/07/16 12:27:41;;;;;;;5.95;3.67;;;24.10;49.20;;;;;;5056484;28;20025;-78
2021/07/16 12:30:09;;;;;;;6.15;3.38;;;24.10;50.20;;;;;;5056456;28;20028;-80
2021/07/16 12:32:42;;;;;;;6.88;3.90;;;24.10;49.80;;;;;;5056663;28;20473;-78
2021/07/16 12:35:15;;;;;;;8.35;3.80;;;24.00;50.80;;;;;;5056012;28;20504;-80
2021/07/16 12:37:43;;;;;;;7.75;4.03;;;24.10;51.70;;;;;;5055991;28;20057;-80
2021/07/16 12:40:11;;;;;;;7.65;4.05;;;24.10;50.40;;;;;;5055851;28;20013;-79
2021/07/16 12:42:37;;;;;;;6.22;3.50;;;24.10;49.00;;;;;;5056266;28;20075;-81
2021/07/16 12:45:11;;;;;;;6.80;3.42;;;24.00;50.00;;;;;;5056152;28;20032;-78
2021/07/16 12:47:46;;;;;;;6.95;3.72;;;24.10;50.00;;;;;;5056115;28;20033;-80
2021/07/16 12:50:15;;;;;;;9.80;4.20;;;24.10;52.70;;;;;;5055803;28;20048;-80
2021/07/16 12:52:41;;;;;;;7.38;4.07;;;24.20;51.60;;;;;;5055785;28;20033;-79
2021/07/16 12:55:19;;;;;;;5.70;3.70;;;24.10;49.80;;;;;;5055785;28;20493;-80
2021/07/16 12:57:46;;;;;;;7.03;3.60;;;24.00;49.70;;;;;;5055611;28;20025;-79
2021/07/16 13:00:16;;;;;;;6.25;3.85;;;23.90;49.40;;;;;;5055541;28;20017;-80
2021/07/16 13:02:49;;;;;;;7.82;3.83;;;23.90;50.10;;;;;;5055649;28;20048;-79
2021/07/16 13:05:31;;;;;;;6.75;3.92;;;23.90;49.60;;;;;;5055793;28;20060;-80
2021/07/16 13:08:17;;;;;;;6.68;4.20;;;;;;;;;;5055791;28;20103;-81
2021/07/16 13:10:53;;;;;;;5.53;3.55;;;;;;;;;;5055973;28;20533;-80
2021/07/16 13:13:39;;;;;;;9.55;4.30;;;;;;;;;;5055945;28;20021;-79
2021/07/16 13:16:11;;;;;;;9.63;4.18;;;;;;;;;;5055537;28;20385;-79
2021/07/16 13:18:38;;;;;;;7.00;3.80;;;;;;;;;;5055250;28;20025;-80
2021/07/16 13:21:04;;;;;;;5.22;3.38;;;;;;;;;;5055194;28;20393;-79
2021/07/16 13:23:32;;;;;;;5.65;3.53;;;;;;;;;;5055329;28;20021;-80
2021/07/16 13:25:58;;;;;;;6.15;3.50;;;23.90;49.90;;;;;;5055020;28;20059;-78
2021/07/16 13:28:24;;;;;;;7.05;3.60;;;23.80;47.10;;;;;;5055259;28;20484;-79
2021/07/16 13:30:50;;;;;;;9.20;3.85;;;23.80;48.60;;;;;;5054965;28;20033;-78
2021/07/16 13:33:16;;;;;;;6.72;4.13;;;;;;;;;;5054869;28;20025;-80
2021/07/16 13:35:42;;;;;;;6.53;3.90;;;;;;;;;;5055054;28;20029;-79
2021/07/16 13:38:08;;;;;;;6.28;4.00;;;;;;;;;;5054815;28;20025;-79
2021/07/16 13:40:34;;;;;;;6.47;3.83;;;;;;;;;;5054815;28;20025;-80
2021/07/16 13:43:01;;;;;;;7.40;3.72;;;;;;;;;;5055077;28;20017;-80
2021/07/16 13:45:26;;;;;;;5.45;3.47;;;23.80;49.10;;;;;;5054737;28;20029;-80
2021/07/16 13:47:52;;;;;;;7.20;3.92;;;23.90;50.20;;;;;;5054682;28;20508;-82
2021/07/16 13:50:18;;;;;;;6.40;3.42;;;23.90;51.00;;;;;;5054352;28;20029;-79
2021/07/16 13:52:43;;;;;;;8.27;4.13;;;23.90;51.50;;;;;;5053907;28;20487;-81
2021/07/16 13:55:09;;;;;;;5.28;3.10;;;24.00;50.70;;;;;;5054438;28;20103;-80
2021/07/16 13:57:35;;;;;;;7.45;3.72;;;24.00;50.60;;;;;;5054520;28;20489;-81